Airfield :







YOU CAN JOIN US ON...

 
LOGIN :

Register | Disclaimer

   EN    FR    IT 

 









Legend :    VFR   Marginal VFR   IFR   Intensive IFR   Very Intensive IFR
Visi :
Ceiling :
>= 8 km
>= 3000ft
5 to 8 km
1000 to 3000 ft
1500m to 5 km
500 to 1000 ft
800 to 1500m
200 to 500 ft
< 800m
< 200 ft
Symbols :   Thunderstorms  Fog  Heavy snow  Heavy precipitations  Wind > 20 kt






- Airport Elevation : 180 ft
- IATA code : YZV


CYZV - Sept-Iles

CURRENT METAR :
  • 180100Z 05002KT 30SM MIFG VCFG SCT020 09/09 A2971 RMK SC3 VIS W-NE 2 SLP064

EXPIRED METARs :
  • 180000Z VRB02KT 30SM FEW015 FEW060 SCT100 10/10 A2969 RMK SC1SC1AC1 SLP057
  • 172300Z 18005KT 30SM FEW001 FEW015 SCT100 11/11 A2967 RMK SF1SC2AC1 SF TR SLP052

TAF TAF CYZV
Valid from the 18 at 00:00 until the 19 at 00:00 UTC


172338Z 1800/1824 18005KT P6SM FEW005 SCT015 BKN100
TEMPO 1800/1813 OVC005
PROB30 1802/1813 1/2SM FG VV002
FM181300 07007KT P6SM FEW005 BKN100
BECMG 1816/1818 11012KT
BECMG 1822/1824 07006KT RMK NXT FCST BY 180600Z
CZUL FIR / North America



MET'MAP, your aeronautical weather chart ! - Copyright ORBIFLY December 2007 - Disclaimer

ORBIFLY MET'MAP TEAM :

Programming & Development : Alexandra Zaïnal
Concept & original design : Baudouin d'Aumeries
Assistance for programming : Marc-Olivier Méhu
Technical & hardware support : Manuel Goepfert

Contact : metmap@orbifly.com




SOURCES & CREDITS :

   NOAA